sensor_id;sensor_type;location;lat;lon;timestamp;pressure;altitude;pressure_sealevel;temperature;humidity
75627;BME280;67372;49.404;11.034;2023-07-08T00:00:34;98390.22;;;17.43;50.78
75627;BME280;67372;49.404;11.034;2023-07-08T00:03:00;98389.41;;;17.42;50.70
75627;BME280;67372;49.404;11.034;2023-07-08T00:05:27;98383.47;;;17.40;50.60
75627;BME280;67372;49.404;11.034;2023-07-08T00:07:53;98383.72;;;17.39;50.83
75627;BME280;67372;49.404;11.034;2023-07-08T00:10:25;98389.13;;;17.39;51.06
75627;BME280;67372;49.404;11.034;2023-07-08T00:12:53;98388.56;;;17.37;51.27
75627;BME280;67372;49.404;11.034;2023-07-08T00:15:22;98388.00;;;17.35;51.27
75627;BME280;67372;49.404;11.034;2023-07-08T00:17:50;98386.09;;;17.30;50.99
75627;BME280;67372;49.404;11.034;2023-07-08T00:20:20;98384.13;;;17.26;51.31
75627;BME280;67372;49.404;11.034;2023-07-08T00:22:48;98390.03;;;17.23;51.71
75627;BME280;67372;49.404;11.034;2023-07-08T00:25:14;98391.63;;;17.18;52.21
75627;BME280;67372;49.404;11.034;2023-07-08T00:27:41;98387.00;;;17.14;52.33
75627;BME280;67372;49.404;11.034;2023-07-08T00:30:18;98384.25;;;17.09;52.46
75627;BME280;67372;49.404;11.034;2023-07-08T00:32:45;98395.78;;;17.04;52.47
75627;BME280;67372;49.404;11.034;2023-07-08T00:35:12;98387.63;;;16.99;52.60
75627;BME280;67372;49.404;11.034;2023-07-08T00:37:39;98380.88;;;16.97;52.63
75627;BME280;67372;49.404;11.034;2023-07-08T00:40:14;98383.50;;;16.92;53.90
75627;BME280;67372;49.404;11.034;2023-07-08T00:42:42;98389.09;;;16.85;53.09
75627;BME280;67372;49.404;11.034;2023-07-08T00:45:18;98382.09;;;16.84;54.21
75627;BME280;67372;49.404;11.034;2023-07-08T00:47:47;98390.91;;;16.79;53.94
75627;BME280;67372;49.404;11.034;2023-07-08T00:50:13;98388.41;;;16.73;54.56
75627;BME280;67372;49.404;11.034;2023-07-08T00:52:40;98386.22;;;16.70;54.67
75627;BME280;67372;49.404;11.034;2023-07-08T00:55:08;98388.09;;;16.69;54.81
75627;BME280;67372;49.404;11.034;2023-07-08T00:57:39;98392.13;;;16.67;55.14
75627;BME280;67372;49.404;11.034;2023-07-08T01:00:09;98392.13;;;16.67;54.68
75627;BME280;67372;49.404;11.034;2023-07-08T01:02:40;98394.81;;;16.67;54.88
75627;BME280;67372;49.404;11.034;2023-07-08T01:05:10;98384.50;;;16.64;54.99
75627;BME280;67372;49.404;11.034;2023-07-08T01:07:39;98387.47;;;16.62;55.20
75627;BME280;67372;49.404;11.034;2023-07-08T01:10:10;98380.69;;;16.60;54.95
75627;BME280;67372;49.404;11.034;2023-07-08T01:12:46;98380.69;;;16.60;55.27
75627;BME280;67372;49.404;11.034;2023-07-08T01:15:14;98385.50;;;16.57;55.22
75627;BME280;67372;49.404;11.034;2023-07-08T01:17:44;98379.47;;;16.50;57.12
75627;BME280;67372;49.404;11.034;2023-07-08T01:20:11;98379.97;;;16.47;54.76
75627;BME280;67372;49.404;11.034;2023-07-08T01:22:39;98369.22;;;16.47;55.15
75627;BME280;67372;49.404;11.034;2023-07-08T01:25:07;98372.97;;;16.46;54.77
75627;BME280;67372;49.404;11.034;2023-07-08T01:27:38;98370.78;;;16.43;55.24
75627;BME280;67372;49.404;11.034;2023-07-08T01:30:06;98373.16;;;16.40;56.13
75627;BME280;67372;49.404;11.034;2023-07-08T01:32:36;98367.72;;;16.35;56.01
75627;BME280;67372;49.404;11.034;2023-07-08T01:35:04;98370.81;;;16.26;56.11
75627;BME280;67372;49.404;11.034;2023-07-08T01:37:38;98366.44;;;16.20;56.35
75627;BME280;67372;49.404;11.034;2023-07-08T01:42:42;98368.25;;;16.15;56.36
75627;BME280;67372;49.404;11.034;2023-07-08T01:45:13;98374.19;;;16.17;56.61
75627;BME280;67372;49.404;11.034;2023-07-08T01:47:42;98372.25;;;16.12;56.75
75627;BME280;67372;49.404;11.034;2023-07-08T01:50:11;98374.59;;;16.09;56.64
75627;BME280;67372;49.404;11.034;2023-07-08T01:52:38;98375.09;;;16.06;56.77
75627;BME280;67372;49.404;11.034;2023-07-08T01:55:06;98372.66;;;16.04;56.64
75627;BME280;67372;49.404;11.034;2023-07-08T01:57:32;98372.09;;;16.02;57.10
75627;BME280;67372;49.404;11.034;2023-07-08T01:59:59;98369.66;;;16.01;57.29
75627;BME280;67372;49.404;11.034;2023-07-08T02:02:25;98367.22;;;15.99;57.43
75627;BME280;67372;49.404;11.034;2023-07-08T02:04:52;98370.72;;;16.00;57.39
75627;BME280;67372;49.404;11.034;2023-07-08T02:07:18;98375.78;;;15.96;59.15
75627;BME280;67372;49.404;11.034;2023-07-08T02:09:44;98377.66;;;15.95;57.70
75627;BME280;67372;49.404;11.034;2023-07-08T02:12:11;98370.41;;;15.96;58.01
75627;BME280;67372;49.404;11.034;2023-07-08T02:14:37;98383.84;;;15.96;58.19
75627;BME280;67372;49.404;11.034;2023-07-08T02:17:04;98379.78;;;15.93;57.95
75627;BME280;67372;49.404;11.034;2023-07-08T02:19:30;98383.84;;;15.96;58.24
75627;BME280;67372;49.404;11.034;2023-07-08T02:21:57;98384.66;;;15.96;58.00
75627;BME280;67372;49.404;11.034;2023-07-08T02:24:23;98377.09;;;15.93;57.79
75627;BME280;67372;49.404;11.034;2023-07-08T02:26:49;98371.88;;;15.87;58.51
75627;BME280;67372;49.404;11.034;2023-07-08T02:29:16;98373.66;;;15.81;58.53
75627;BME280;67372;49.404;11.034;2023-07-08T02:31:42;98379.53;;;15.78;58.45
75627;BME280;67372;49.404;11.034;2023-07-08T02:34:09;98377.34;;;15.75;59.63
75627;BME280;67372;49.404;11.034;2023-07-08T02:36:35;98372.44;;;15.72;59.43
75627;BME280;67372;49.404;11.034;2023-07-08T02:39:01;98356.72;;;15.64;59.70
75627;BME280;67372;49.404;11.034;2023-07-08T02:41:28;98369.00;;;15.60;59.67
75627;BME280;67372;49.404;11.034;2023-07-08T02:43:54;98371.50;;;15.61;59.20
75627;BME280;67372;49.404;11.034;2023-07-08T02:46:21;98374.75;;;15.63;58.80
75627;BME280;67372;49.404;11.034;2023-07-08T02:48:47;98375.00;;;15.62;59.38
75627;BME280;67372;49.404;11.034;2023-07-08T02:51:14;98387.25;;;15.58;59.32
75627;BME280;67372;49.404;11.034;2023-07-08T02:53:40;98384.47;;;15.53;59.10
75627;BME280;67372;49.404;11.034;2023-07-08T02:56:06;98382.53;;;15.48;59.06
75627;BME280;67372;49.404;11.034;2023-07-08T02:58:33;98373.81;;;15.41;59.79
75627;BME280;67372;49.404;11.034;2023-07-08T03:00:59;98378.50;;;15.34;59.52
75627;BME280;67372;49.404;11.034;2023-07-08T03:03:27;98380.28;;;15.28;59.72
75627;BME280;67372;49.404;11.034;2023-07-08T03:05:57;98388.19;;;15.18;60.65
75627;BME280;67372;49.404;11.034;2023-07-08T03:08:24;98393.44;;;15.13;60.03
75627;BME280;67372;49.404;11.034;2023-07-08T03:10:57;98392.28;;;15.09;60.54
75627;BME280;67372;49.404;11.034;2023-07-08T03:13:25;98398.97;;;15.07;60.75
75627;BME280;67372;49.404;11.034;2023-07-08T03:15:52;98400.50;;;15.02;60.61
75627;BME280;67372;49.404;11.034;2023-07-08T03:18:18;98402.88;;;14.99;61.25
75627;BME280;67372;49.404;11.034;2023-07-08T03:20:44;98407.66;;;14.97;61.15
75627;BME280;67372;49.404;11.034;2023-07-08T03:23:12;98404.66;;;14.93;61.15
75627;BME280;67372;49.404;11.034;2023-07-08T03:25:38;98413.41;;;14.89;61.23
75627;BME280;67372;49.404;11.034;2023-07-08T03:28:05;98411.19;;;14.86;61.30
75627;BME280;67372;49.404;11.034;2023-07-08T03:30:33;98409.22;;;14.81;61.38
75627;BME280;67372;49.404;11.034;2023-07-08T03:33:00;98415.66;;;14.80;61.59
75627;BME280;67372;49.404;11.034;2023-07-08T03:35:26;98409.72;;;14.78;62.07
75627;BME280;67372;49.404;11.034;2023-07-08T03:37:53;98413.44;;;14.77;61.80
75627;BME280;67372;49.404;11.034;2023-07-08T03:40:19;98415.31;;;14.77;62.05
75627;BME280;67372;49.404;11.034;2023-07-08T03:42:45;98416.63;;;14.74;62.29
75627;BME280;67372;49.404;11.034;2023-07-08T03:45:12;98427.03;;;14.70;62.59
75627;BME280;67372;49.404;11.034;2023-07-08T03:47:38;98428.88;;;14.70;62.78
75627;BME280;67372;49.404;11.034;2023-07-08T03:50:06;98434.84;;;14.72;62.53
75627;BME280;67372;49.404;11.034;2023-07-08T03:52:32;98436.47;;;14.73;62.97
75627;BME280;67372;49.404;11.034;2023-07-08T03:54:59;98428.97;;;14.75;62.83
75627;BME280;67372;49.404;11.034;2023-07-08T03:57:25;98426.88;;;14.77;62.79
75627;BME280;67372;49.404;11.034;2023-07-08T03:59:51;98429.91;;;14.81;62.31
75627;BME280;67372;49.404;11.034;2023-07-08T04:02:18;98417.84;;;14.95;62.26
75627;BME280;67372;49.404;11.034;2023-07-08T04:04:44;98428.91;;;15.27;62.62
75627;BME280;67372;49.404;11.034;2023-07-08T04:07:10;98418.09;;;15.67;62.18
75627;BME280;67372;49.404;11.034;2023-07-08T04:09:37;98409.59;;;16.09;61.76
75627;BME280;67372;49.404;11.034;2023-07-08T04:12:03;98410.56;;;16.58;61.32
75627;BME280;67372;49.404;11.034;2023-07-08T04:14:30;98401.53;;;17.13;60.09
75627;BME280;67372;49.404;11.034;2023-07-08T04:16:57;98400.09;;;17.59;59.12
75627;BME280;67372;49.404;11.034;2023-07-08T04:19:25;98408.09;;;18.13;57.87
75627;BME280;67372;49.404;11.034;2023-07-08T04:21:52;98412.97;;;18.58;56.91
75627;BME280;67372;49.404;11.034;2023-07-08T04:24:19;98414.25;;;19.03;55.76
75627;BME280;67372;49.404;11.034;2023-07-08T04:26:47;98414.38;;;19.44;54.66
75627;BME280;67372;49.404;11.034;2023-07-08T04:29:20;98412.78;;;19.68;53.79
75627;BME280;67372;49.404;11.034;2023-07-08T04:31:47;98417.38;;;19.83;53.03
75627;BME280;67372;49.404;11.034;2023-07-08T04:34:14;98416.84;;;20.16;53.51
75627;BME280;67372;49.404;11.034;2023-07-08T04:36:41;98413.50;;;20.55;52.59
75627;BME280;67372;49.404;11.034;2023-07-08T04:39:08;98420.41;;;20.97;51.18
75627;BME280;67372;49.404;11.034;2023-07-08T04:41:39;98415.09;;;21.36;50.65
75627;BME280;67372;49.404;11.034;2023-07-08T04:44:09;98415.72;;;21.62;49.33
75627;BME280;67372;49.404;11.034;2023-07-08T04:46:49;98412.34;;;21.80;46.63
75627;BME280;67372;49.404;11.034;2023-07-08T04:49:17;98417.09;;;21.59;48.49
75627;BME280;67372;49.404;11.034;2023-07-08T04:51:43;98415.88;;;21.41;47.54
75627;BME280;67372;49.404;11.034;2023-07-08T04:54:10;98419.50;;;21.17;47.23
75627;BME280;67372;49.404;11.034;2023-07-08T04:56:38;98410.13;;;20.94;47.06
75627;BME280;67372;49.404;11.034;2023-07-08T04:59:05;98423.50;;;20.70;47.43
75627;BME280;67372;49.404;11.034;2023-07-08T05:01:33;98419.75;;;20.50;47.53
75627;BME280;67372;49.404;11.034;2023-07-08T05:04:00;98425.19;;;20.30;48.22
75627;BME280;67372;49.404;11.034;2023-07-08T05:06:27;98424.97;;;20.11;48.40
75627;BME280;67372;49.404;11.034;2023-07-08T05:08:54;98427.16;;;19.89;48.70
75627;BME280;67372;49.404;11.034;2023-07-08T05:11:20;98427.41;;;19.67;48.84
75627;BME280;67372;49.404;11.034;2023-07-08T05:13:47;98431.69;;;19.53;49.26
75627;BME280;67372;49.404;11.034;2023-07-08T05:16:13;98434.94;;;19.45;49.29
75627;BME280;67372;49.404;11.034;2023-07-08T05:18:40;98428.41;;;19.36;48.99
75627;BME280;67372;49.404;11.034;2023-07-08T05:21:06;98435.16;;;19.33;48.94
75627;BME280;67372;49.404;11.034;2023-07-08T05:23:32;98436.50;;;19.30;48.87
75627;BME280;67372;49.404;11.034;2023-07-08T05:26:01;98441.09;;;19.30;49.37
75627;BME280;67372;49.404;11.034;2023-07-08T05:28:27;98438.66;;;19.28;49.47
75627;BME280;67372;49.404;11.034;2023-07-08T05:30:54;98438.66;;;19.28;50.04
75627;BME280;67372;49.404;11.034;2023-07-08T05:33:24;98430.56;;;19.23;50.00
75627;BME280;67372;49.404;11.034;2023-07-08T05:35:52;98448.41;;;19.24;50.29
75627;BME280;67372;49.404;11.034;2023-07-08T05:38:18;98445.16;;;19.27;50.25
75627;BME280;67372;49.404;11.034;2023-07-08T05:40:55;98446.78;;;19.33;50.20
75627;BME280;67372;49.404;11.034;2023-07-08T05:43:22;98450.88;;;19.41;50.22
75627;BME280;67372;49.404;11.034;2023-07-08T05:45:49;98447.91;;;19.48;50.10
75627;BME280;67372;49.404;11.034;2023-07-08T05:48:36;98446.59;;;19.55;50.13
75627;BME280;67372;49.404;11.034;2023-07-08T05:51:02;98443.13;;;19.65;50.06
75627;BME280;67372;49.404;11.034;2023-07-08T05:53:29;98446.63;;;19.76;49.57
75627;BME280;67372;49.404;11.034;2023-07-08T05:55:55;98441.78;;;19.88;49.41
75627;BME280;67372;49.404;11.034;2023-07-08T05:58:22;98441.50;;;20.00;49.18
75627;BME280;67372;49.404;11.034;2023-07-08T06:00:56;98449.91;;;20.13;48.54
75627;BME280;67372;49.404;11.034;2023-07-08T06:03:24;98441.22;;;20.21;48.06
75627;BME280;67372;49.404;11.034;2023-07-08T06:05:50;98445.53;;;20.28;47.92
75627;BME280;67372;49.404;11.034;2023-07-08T06:08:17;98440.09;;;20.38;48.00
75627;BME280;67372;49.404;11.034;2023-07-08T06:10:44;98440.38;;;20.51;47.69
75627;BME280;67372;49.404;11.034;2023-07-08T06:13:12;98430.84;;;20.64;47.50
75627;BME280;67372;49.404;11.034;2023-07-08T06:15:39;98438.38;;;20.77;47.07
75627;BME280;67372;49.404;11.034;2023-07-08T06:18:06;98431.56;;;20.90;47.07
75627;BME280;67372;49.404;11.034;2023-07-08T06:20:32;98432.84;;;21.03;46.61
75627;BME280;67372;49.404;11.034;2023-07-08T06:22:59;98429.84;;;21.14;46.44
75627;BME280;67372;49.404;11.034;2023-07-08T06:25:27;98429.00;;;21.24;45.97
75627;BME280;67372;49.404;11.034;2023-07-08T06:27:54;98425.69;;;21.32;45.73
75627;BME280;67372;49.404;11.034;2023-07-08T06:30:20;98430.78;;;21.44;45.45
75627;BME280;67372;49.404;11.034;2023-07-08T06:32:46;98423.91;;;21.57;45.47
75627;BME280;67372;49.404;11.034;2023-07-08T06:35:13;98429.50;;;21.70;45.16
75627;BME280;67372;49.404;11.034;2023-07-08T06:37:39;98435.13;;;21.84;45.13
75627;BME280;67372;49.404;11.034;2023-07-08T06:40:07;98434.97;;;21.99;44.56
75627;BME280;67372;49.404;11.034;2023-07-08T06:42:33;98434.59;;;22.16;44.40
75627;BME280;67372;49.404;11.034;2023-07-08T06:45:00;98431.22;;;22.29;43.99
75627;BME280;67372;49.404;11.034;2023-07-08T06:47:26;98427.81;;;22.43;43.87
75627;BME280;67372;49.404;11.034;2023-07-08T06:49:53;98427.94;;;22.56;43.71
75627;BME280;67372;49.404;11.034;2023-07-08T06:52:20;98419.09;;;22.70;43.29
75627;BME280;67372;49.404;11.034;2023-07-08T06:54:47;98423.63;;;22.79;43.14
75627;BME280;67372;49.404;11.034;2023-07-08T06:57:13;98416.66;;;22.92;43.06
75627;BME280;67372;49.404;11.034;2023-07-08T06:59:39;98416.78;;;23.06;42.90
75627;BME280;67372;49.404;11.034;2023-07-08T07:02:06;98410.34;;;23.20;42.62
75627;BME280;67372;49.404;11.034;2023-07-08T07:04:32;98419.06;;;23.36;42.40
75627;BME280;67372;49.404;11.034;2023-07-08T07:06:58;98411.81;;;23.50;42.25
75627;BME280;67372;49.404;11.034;2023-07-08T07:09:25;98409.44;;;23.63;42.05
75627;BME280;67372;49.404;11.034;2023-07-08T07:11:51;98410.13;;;23.73;41.90
75627;BME280;67372;49.404;11.034;2023-07-08T07:14:18;98399.53;;;23.85;41.90
75627;BME280;67372;49.404;11.034;2023-07-08T07:16:47;98403.13;;;24.00;41.40
75627;BME280;67372;49.404;11.034;2023-07-08T07:19:33;98393.91;;;24.14;41.33
75627;BME280;67372;49.404;11.034;2023-07-08T07:21:59;98395.53;;;24.29;41.13
75627;BME280;67372;49.404;11.034;2023-07-08T07:24:26;98396.09;;;24.45;40.41
75627;BME280;67372;49.404;11.034;2023-07-08T07:26:52;98395.88;;;24.55;40.54
75627;BME280;67372;49.404;11.034;2023-07-08T07:29:22;98395.88;;;24.69;40.15
75627;BME280;67372;49.404;11.034;2023-07-08T07:31:48;98387.91;;;24.86;39.87
75627;BME280;67372;49.404;11.034;2023-07-08T07:34:15;98385.97;;;25.00;39.27
75627;BME280;67372;49.404;11.034;2023-07-08T07:36:41;98397.19;;;25.13;38.79
75627;BME280;67372;49.404;11.034;2023-07-08T07:39:07;98392.59;;;25.22;38.26
75627;BME280;67372;49.404;11.034;2023-07-08T07:41:34;98393.69;;;25.34;38.25
75627;BME280;67372;49.404;11.034;2023-07-08T07:44:00;98401.03;;;25.48;38.91
75627;BME280;67372;49.404;11.034;2023-07-08T07:46:27;98400.19;;;25.61;38.33
75627;BME280;67372;49.404;11.034;2023-07-08T07:48:53;98400.16;;;25.75;38.31
75627;BME280;67372;49.404;11.034;2023-07-08T07:51:20;98396.56;;;25.88;37.98
75627;BME280;67372;49.404;11.034;2023-07-08T07:53:46;98410.94;;;26.02;36.83
75627;BME280;67372;49.404;11.034;2023-07-08T07:56:12;98396.72;;;26.14;36.75
75627;BME280;67372;49.404;11.034;2023-07-08T07:58:39;98396.44;;;26.24;35.97
75627;BME280;67372;49.404;11.034;2023-07-08T08:01:05;98392.63;;;26.34;35.94
75627;BME280;67372;49.404;11.034;2023-07-08T08:03:32;98385.78;;;26.45;35.75
75627;BME280;67372;49.404;11.034;2023-07-08T08:05:58;98384.81;;;26.49;35.04
75627;BME280;67372;49.404;11.034;2023-07-08T08:08:26;98395.19;;;26.61;35.41
75627;BME280;67372;49.404;11.034;2023-07-08T08:10:52;98398.44;;;26.72;34.91
75627;BME280;67372;49.404;11.034;2023-07-08T08:13:18;98395.25;;;26.78;34.75
75627;BME280;67372;49.404;11.034;2023-07-08T08:15:45;98399.94;;;26.86;34.40
75627;BME280;67372;49.404;11.034;2023-07-08T08:18:11;98388.69;;;26.97;34.08
75627;BME280;67372;49.404;11.034;2023-07-08T08:20:38;98393.59;;;27.08;34.30
75627;BME280;67372;49.404;11.034;2023-07-08T08:23:04;98390.34;;;27.15;33.31
75627;BME280;67372;49.404;11.034;2023-07-08T08:25:30;98391.31;;;27.10;33.49
75627;BME280;67372;49.404;11.034;2023-07-08T08:27:57;98388.25;;;27.12;33.65
75627;BME280;67372;49.404;11.034;2023-07-08T08:30:23;98385.69;;;27.15;33.70
75627;BME280;67372;49.404;11.034;2023-07-08T08:32:50;98402.78;;;27.30;33.38
75627;BME280;67372;49.404;11.034;2023-07-08T08:35:16;98394.25;;;27.40;33.38
75627;BME280;67372;49.404;11.034;2023-07-08T08:37:42;98391.22;;;27.50;32.88
75627;BME280;67372;49.404;11.034;2023-07-08T08:40:13;98398.63;;;27.58;31.90
75627;BME280;67372;49.404;11.034;2023-07-08T08:42:51;98394.94;;;27.71;31.72
75627;BME280;67372;49.404;11.034;2023-07-08T08:45:19;98402.66;;;27.78;31.18
75627;BME280;67372;49.404;11.034;2023-07-08T08:47:50;98399.09;;;27.86;30.85
75627;BME280;67372;49.404;11.034;2023-07-08T08:50:26;98402.19;;;27.93;30.67
75627;BME280;67372;49.404;11.034;2023-07-08T08:52:55;98404.41;;;28.00;30.96
75627;BME280;67372;49.404;11.034;2023-07-08T08:55:23;98405.03;;;28.05;29.65
75627;BME280;67372;49.404;11.034;2023-07-08T09:01:04;98396.97;;;28.26;29.32
75627;BME280;67372;49.404;11.034;2023-07-08T09:03:37;98398.38;;;28.32;29.35
75627;BME280;67372;49.404;11.034;2023-07-08T09:06:19;98389.63;;;28.39;28.85
75627;BME280;67372;49.404;11.034;2023-07-08T09:08:46;98393.03;;;28.45;29.74
75627;BME280;67372;49.404;11.034;2023-07-08T09:14:01;98391.81;;;28.63;29.30
75627;BME280;67372;49.404;11.034;2023-07-08T09:19:18;98405.66;;;28.75;27.60
75627;BME280;67372;49.404;11.034;2023-07-08T09:24:41;98397.84;;;28.86;27.75
75627;BME280;67372;49.404;11.034;2023-07-08T09:27:09;98408.47;;;28.96;28.52
75627;BME280;67372;49.404;11.034;2023-07-08T09:29:35;98398.44;;;29.00;28.09
75627;BME280;67372;49.404;11.034;2023-07-08T09:35:07;98403.50;;;29.19;28.15
75627;BME280;67372;49.404;11.034;2023-07-08T09:37:34;98402.56;;;29.36;27.08
75627;BME280;67372;49.404;11.034;2023-07-08T09:40:14;98401.38;;;29.45;26.77
75627;BME280;67372;49.404;11.034;2023-07-08T09:42:42;98395.94;;;29.57;26.25
75627;BME280;67372;49.404;11.034;2023-07-08T09:45:19;98391.06;;;29.63;25.80
75627;BME280;67372;49.404;11.034;2023-07-08T09:47:46;98397.16;;;29.69;25.81
75627;BME280;67372;49.404;11.034;2023-07-08T09:50:31;98392.34;;;29.78;24.55
75627;BME280;67372;49.404;11.034;2023-07-08T09:53:02;98404.22;;;29.90;25.52
75627;BME280;67372;49.404;11.034;2023-07-08T09:55:28;98401.94;;;29.92;24.91
75627;BME280;67372;49.404;11.034;2023-07-08T09:57:56;98396.22;;;29.98;25.09
75627;BME280;67372;49.404;11.034;2023-07-08T10:00:39;98402.53;;;29.98;24.85
75627;BME280;67372;49.404;11.034;2023-07-08T10:03:17;98403.63;;;30.06;24.26
75627;BME280;67372;49.404;11.034;2023-07-08T10:05:46;98398.13;;;30.06;23.88
75627;BME280;67372;49.404;11.034;2023-07-08T10:08:19;98399.84;;;30.10;23.88
75627;BME280;67372;49.404;11.034;2023-07-08T10:10:49;98406.75;;;30.16;24.44
75627;BME280;67372;49.404;11.034;2023-07-08T10:13:34;98403.88;;;30.25;23.55
75627;BME280;67372;49.404;11.034;2023-07-08T10:16:22;98399.00;;;30.31;23.44
75627;BME280;67372;49.404;11.034;2023-07-08T10:18:49;98398.88;;;30.39;24.38
75627;BME280;67372;49.404;11.034;2023-07-08T10:21:47;98393.94;;;30.45;23.02
75627;BME280;67372;49.404;11.034;2023-07-08T10:26:50;98382.25;;;30.48;23.73
75627;BME280;67372;49.404;11.034;2023-07-08T10:29:25;98389.50;;;30.52;23.75
75627;BME280;67372;49.404;11.034;2023-07-08T10:37:03;98382.28;;;30.72;23.39
75627;BME280;67372;49.404;11.034;2023-07-08T10:42:31;98387.59;;;30.77;23.16
75627;BME280;67372;49.404;11.034;2023-07-08T10:45:18;98389.31;;;30.82;23.36
75627;BME280;67372;49.404;11.034;2023-07-08T10:48:00;98390.44;;;30.69;23.23
75627;BME280;67372;49.404;11.034;2023-07-08T10:50:52;98387.28;;;30.46;22.93
75627;BME280;67372;49.404;11.034;2023-07-08T10:56:11;98389.88;;;30.18;23.70
75627;BME280;67372;49.404;11.034;2023-07-08T11:07:40;98378.44;;;30.28;23.12
75627;BME280;67372;49.404;11.034;2023-07-08T11:10:15;98389.13;;;30.30;23.57
75627;BME280;67372;49.404;11.034;2023-07-08T11:12:47;98378.91;;;30.30;23.24
75627;BME280;67372;49.404;11.034;2023-07-08T11:15:24;98371.47;;;30.31;23.54
75627;BME280;67372;49.404;11.034;2023-07-08T11:18:04;98372.94;;;30.40;23.30
75627;BME280;67372;49.404;11.034;2023-07-08T11:20:40;98372.03;;;30.48;23.53
75627;BME280;67372;49.404;11.034;2023-07-08T11:26:17;98362.66;;;30.62;22.74
75627;BME280;67372;49.404;11.034;2023-07-08T11:28:45;98367.25;;;30.70;23.40
75627;BME280;67372;49.404;11.034;2023-07-08T11:31:13;98361.03;;;30.73;23.22
75627;BME280;67372;49.404;11.034;2023-07-08T11:33:41;98364.84;;;30.80;23.33
75627;BME280;67372;49.404;11.034;2023-07-08T11:36:09;98363.13;;;30.88;23.88
75627;BME280;67372;49.404;11.034;2023-07-08T11:38:36;98359.41;;;30.96;23.71
75627;BME280;67372;49.404;11.034;2023-07-08T11:41:11;98354.16;;;31.03;23.42
75627;BME280;67372;49.404;11.034;2023-07-08T11:43:46;98355.19;;;31.23;23.04
75627;BME280;67372;49.404;11.034;2023-07-08T11:46:25;98365.34;;;31.35;22.94
75627;BME280;67372;49.404;11.034;2023-07-08T11:48:52;98358.44;;;31.41;22.76
75627;BME280;67372;49.404;11.034;2023-07-08T11:51:23;98363.13;;;31.53;22.73
75627;BME280;67372;49.404;11.034;2023-07-08T11:54:11;98357.00;;;31.59;21.95
75627;BME280;67372;49.404;11.034;2023-07-08T11:59:25;98355.75;;;31.57;22.65
75627;BME280;67372;49.404;11.034;2023-07-08T12:02:03;98344.25;;;31.55;22.82
75627;BME280;67372;49.404;11.034;2023-07-08T12:04:31;98351.03;;;31.57;22.29
75627;BME280;67372;49.404;11.034;2023-07-08T12:07:16;98346.94;;;31.67;22.04
75627;BME280;67372;49.404;11.034;2023-07-08T12:09:47;98344.63;;;31.81;22.29
75627;BME280;67372;49.404;11.034;2023-07-08T12:12:20;98351.13;;;31.89;22.47
75627;BME280;67372;49.404;11.034;2023-07-08T12:14:47;98344.91;;;31.92;22.05
75627;BME280;67372;49.404;11.034;2023-07-08T12:17:14;98352.50;;;31.95;21.95
75627;BME280;67372;49.404;11.034;2023-07-08T12:19:43;98345.81;;;31.96;21.89
75627;BME280;67372;49.404;11.034;2023-07-08T12:22:11;98351.06;;;32.01;22.00
75627;BME280;67372;49.404;11.034;2023-07-08T12:24:38;98346.00;;;32.03;22.09
75627;BME280;67372;49.404;11.034;2023-07-08T12:27:09;98345.25;;;31.90;21.52
75627;BME280;67372;49.404;11.034;2023-07-08T12:29:36;98354.16;;;31.84;21.61
75627;BME280;67372;49.404;11.034;2023-07-08T12:32:03;98350.16;;;31.81;21.96
75627;BME280;67372;49.404;11.034;2023-07-08T12:34:31;98345.03;;;31.95;21.62
75627;BME280;67372;49.404;11.034;2023-07-08T12:36:57;98348.94;;;31.94;21.22
75627;BME280;67372;49.404;11.034;2023-07-08T12:39:24;98338.03;;;31.86;22.23
75627;BME280;67372;49.404;11.034;2023-07-08T12:41:50;98343.81;;;31.81;21.67
75627;BME280;67372;49.404;11.034;2023-07-08T12:44:22;98340.81;;;31.86;22.31
75627;BME280;67372;49.404;11.034;2023-07-08T12:46:52;98338.94;;;31.90;21.63
75627;BME280;67372;49.404;11.034;2023-07-08T12:49:19;98338.34;;;31.96;21.88
75627;BME280;67372;49.404;11.034;2023-07-08T12:51:46;98344.44;;;31.90;21.84
75627;BME280;67372;49.404;11.034;2023-07-08T12:54:14;98333.25;;;31.98;21.83
75627;BME280;67372;49.404;11.034;2023-07-08T12:56:44;98336.03;;;31.98;21.27
75627;BME280;67372;49.404;11.034;2023-07-08T12:59:16;98338.34;;;31.96;21.78
75627;BME280;67372;49.404;11.034;2023-07-08T13:01:45;98330.84;;;31.97;22.10
75627;BME280;67372;49.404;11.034;2023-07-08T13:04:12;98345.47;;;31.97;21.58
75627;BME280;67372;49.404;11.034;2023-07-08T13:06:40;98332.69;;;31.93;21.83
75627;BME280;67372;49.404;11.034;2023-07-08T13:09:23;98340.63;;;31.66;22.44
75627;BME280;67372;49.404;11.034;2023-07-08T13:11:54;98340.88;;;31.61;22.74
75627;BME280;67372;49.404;11.034;2023-07-08T13:14:22;98348.47;;;31.64;22.69
75627;BME280;67372;49.404;11.034;2023-07-08T13:16:48;98345.78;;;31.80;23.25
75627;BME280;67372;49.404;11.034;2023-07-08T13:19:15;98349.25;;;31.93;22.46
75627;BME280;67372;49.404;11.034;2023-07-08T13:21:41;98342.25;;;32.11;22.66
75627;BME280;67372;49.404;11.034;2023-07-08T13:24:11;98351.06;;;32.17;21.29
75627;BME280;67372;49.404;11.034;2023-07-08T13:26:38;98350.59;;;32.27;22.29
75627;BME280;67372;49.404;11.034;2023-07-08T13:29:11;98351.06;;;32.01;20.51
75627;BME280;67372;49.404;11.034;2023-07-08T13:31:39;98340.03;;;32.01;21.80
75627;BME280;67372;49.404;11.034;2023-07-08T13:34:08;98347.59;;;32.04;21.19
75627;BME280;67372;49.404;11.034;2023-07-08T13:36:39;98351.16;;;32.04;21.21
75627;BME280;67372;49.404;11.034;2023-07-08T13:39:08;98349.47;;;32.00;21.90
75627;BME280;67372;49.404;11.034;2023-07-08T13:41:35;98344.22;;;31.95;21.85
75627;BME280;67372;49.404;11.034;2023-07-08T13:44:06;98344.28;;;31.83;21.67